| time (UTC) | temp C | wind direction | speed KPH | gust KPH | rain 1hr cm | rain 24hr cm | rain mn cm | humidity % | barometer mb |
| 20260507203003 | 35 | 91 | 4.8 | 8.0 | 0.00 | 0.00 | 0.76 | 10 | 1010.8 |
| 20260507202004 | 34 | 234 | 3.2 | 9.7 | 0.00 | 0.00 | 0.81 | 11 | 1011.0 |
| 20260507201002 | 34 | 227 | 3.2 | 6.4 | 0.00 | 0.00 | 0.79 | 11 | 1011.1 |
| 20260507200002 | 33 | 234 | 6.4 | 11.3 | 0.00 | 0.00 | 0.79 | 11 | 1011.2 |
| 20260507195002 | 33 | 75 | 3.2 | 8.0 | 0.00 | 0.00 | 0.79 | 11 | 1011.4 |
| 20260507194003 | 33 | 240 | 4.8 | 8.0 | 0.00 | 0.00 | 0.79 | 11 | 1011.6 |
| 20260507193003 | 33 | 153 | 3.2 | 9.7 | 0.00 | 0.00 | 0.84 | 12 | 1011.7 |
| 20260507192003 | 33 | 169 | 3.2 | 6.4 | 0.00 | 0.00 | 0.84 | 12 | 1011.8 |
| 20260507191002 | 33 | 230 | 6.4 | 11.3 | 0.00 | 0.00 | 0.76 | 11 | 1012.0 |
| 20260507190004 | 33 | 245 | 6.4 | 11.3 | 0.00 | 0.00 | 0.86 | 13 | 1012.1 |
| 20260507185003 | 32 | 225 | 1.6 | 3.2 | 0.00 | 0.00 | 0.86 | 13 | 1012.3 |
| 20260507184003 | 32 | 21 | 1.6 | 3.2 | 0.00 | 0.00 | 0.89 | 14 | 1012.4 |
| 20260507183003 | 32 | 270 | 3.2 | 4.8 | 0.00 | 0.00 | 0.89 | 14 | 1012.6 |
| 20260507182012 | 32 | 201 | 1.6 | 4.8 | 0.00 | 0.00 | 0.86 | 14 | 1012.7 |
| 20260507181013 | 31 | 216 | 3.2 | 4.8 | 0.00 | 0.00 | 0.86 | 14 | 1012.9 |
| 20260507180003 | 31 | 192 | 3.2 | 4.8 | 0.00 | 0.00 | 0.84 | 14 | 1013.0 |
| 20260507175008 | 31 | 248 | 3.2 | 8.0 | 0.00 | 0.00 | 0.86 | 15 | 1013.0 |
| 20260507174003 | 30 | 225 | 1.6 | 3.2 | 0.00 | 0.00 | 0.89 | 16 | 1013.2 |
| 20260507173002 | 30 | 286 | 1.6 | 6.4 | 0.00 | 0.00 | 0.91 | 17 | 1013.3 |
| 20260507172013 | 29 | 253 | 3.2 | 4.8 | 0.00 | 0.00 | 0.91 | 17 | 1013.4 |
| 20260507171003 | 28 | 229 | 1.6 | 3.2 | 0.00 | 0.00 | 0.89 | 17 | 1013.5 |
| 20260507170003 | 28 | 263 | 1.6 | 3.2 | 0.00 | 0.00 | 0.91 | 18 | 1013.6 |
| 20260507165013 | 28 | 179 | 0.0 | 3.2 | 0.00 | 0.00 | 0.94 | 20 | 1013.7 |
| 20260507164002 | 27 | 215 | 1.6 | 4.8 | 0.00 | 0.00 | 0.94 | 20 | 1013.8 |
| 20260507163003 | 27 | 281 | 3.2 | 4.8 | 0.00 | 0.00 | 0.97 | 21 | 1013.8 |
| 20260507162003 | 27 | 217 | 3.2 | 4.8 | 0.00 | 0.00 | 0.99 | 22 | 1013.9 |
| 20260507161013 | 26 | 193 | 3.2 | 6.4 | 0.00 | 0.00 | 0.97 | 22 | 1014.0 |
| 20260507160003 | 26 | 217 | 1.6 | 3.2 | 0.00 | 0.00 | 0.97 | 22 | 1014.0 |
| 20260507155004 | 26 | 267 | 1.6 | 4.8 | 0.00 | 0.00 | 0.97 | 23 | 1014.1 |
| 20260507154003 | 25 | 244 | 1.6 | 3.2 | 0.00 | 0.00 | 0.97 | 24 | 1014.1 |
| 20260507153002 | 25 | 197 | 1.6 | 4.8 | 0.00 | 0.00 | 0.97 | 25 | 1014.1 |
| 20260507152003 | 24 | 262 | 1.6 | 3.2 | 0.00 | 0.00 | 0.97 | 26 | 1014.1 |
| 20260507151013 | 23 | 177 | 3.2 | 4.8 | 0.00 | 0.00 | 0.97 | 27 | 1014.2 |
| 20260507150012 | 23 | 147 | 3.2 | 4.8 | 0.00 | 0.00 | 0.97 | 28 | 1014.2 |
| 20260507145003 | 22 | 190 | 1.6 | 3.2 | 0.00 | 0.00 | 0.99 | 29 | 1014.2 |
| 20260507144003 | 22 | 156 | 1.6 | 3.2 | 0.00 | 0.00 | 0.97 | 28 | 1014.2 |
| 20260507143003 | 22 | 225 | 0.0 | 3.2 | 0.00 | 0.00 | 0.97 | 29 | 1014.2 |
| 20260507142002 | 21 | 264 | 0.0 | 1.6 | 0.00 | 0.00 | 0.97 | 30 | 1014.2 |
| 20260507141003 | 20 | 290 | 0.0 | 1.6 | 0.00 | 0.00 | 0.97 | 32 | 1014.2 |
| 20260507140003 | 19 | 210 | 0.0 | 3.2 | 0.00 | 0.00 | 0.94 | 33 | 1014.2 |
| 20260507135003 | 18 | 329 | 0.0 | 1.6 | 0.00 | 0.00 | 0.94 | 36 | 1014.1 |
| 20260507134003 | 17 | 0 | 0.0 | 0.0 | 0.00 | 0.00 | 0.99 | 39 | 1014.0 |
| 20260507133003 | 17 | 0 | 0.0 | 0.0 | 0.00 | 0.00 | 0.91 | 36 | 1014.0 |
| 20260507132002 | 17 | 0 | 0.0 | 0.0 | 0.00 | 0.00 | 0.94 | 37 | 1014.0 |
| 20260507131003 | 18 | 302 | 0.0 | 0.0 | 0.00 | 0.00 | 0.94 | 36 | 1013.8 |
| 20260507130002 | 18 | 0 | 0.0 | 0.0 | 0.00 | 0.00 | 0.94 | 35 | 1013.8 |
| 20260507125013 | 19 | 113 | 0.0 | 1.6 | 0.00 | 0.00 | 0.91 | 33 | 1013.7 |
| 20260507124003 | 20 | 267 | 0.0 | 0.0 | 0.00 | 0.00 | 0.91 | 31 | 1013.5 |
| 20260507123003 | 19 | 350 | 1.6 | 3.2 | 0.00 | 0.00 | 0.89 | 31 | 1013.4 |
| 20260507122013 | 18 | 326 | 3.2 | 3.2 | 0.00 | 0.00 | 0.89 | 32 | 1013.5 |
| 20260507121013 | 18 | 330 | 1.6 | 3.2 | 0.00 | 0.00 | 0.89 | 33 | 1013.6 |
| 20260507120003 | 18 | 323 | 0.0 | 1.6 | 0.00 | 0.00 | 0.91 | 34 | 1013.6 |
| 20260507115003 | 17 | 329 | 3.2 | 4.8 | 0.00 | 0.00 | 0.86 | 33 | 1013.5 |
| 20260507114013 | 16 | 349 | 0.0 | 1.6 | 0.00 | 0.00 | 0.89 | 37 | 1013.6 |
| 20260507113002 | 16 | 299 | 0.0 | 1.6 | 0.00 | 0.00 | 0.89 | 37 | 1013.6 |
| 20260507112003 | 16 | 312 | 0.0 | 0.0 | 0.00 | 0.00 | 0.89 | 36 | 1013.7 |
| 20260507111002 | 16 | 0 | 0.0 | 0.0 | 0.00 | 0.00 | 0.86 | 36 | 1013.7 |
| 20260507110003 | 16 | 0 | 0.0 | 0.0 | 0.00 | 0.00 | 0.89 | 37 | 1013.7 |
| 20260507105003 | 16 | 295 | 0.0 | 0.0 | 0.00 | 0.00 | 0.89 | 37 | 1013.8 |
| 20260507104003 | 16 | 242 | 0.0 | 1.6 | 0.00 | 0.00 | 0.89 | 36 | 1013.7 |
| 20260507103002 | 16 | 0 | 0.0 | 0.0 | 0.00 | 0.00 | 0.86 | 35 | 1013.8 |
| 20260507102008 | 16 | 0 | 0.0 | 0.0 | 0.00 | 0.00 | 0.89 | 36 | 1013.9 |
| 20260507101003 | 16 | 0 | 0.0 | 0.0 | 0.00 | 0.00 | 0.89 | 37 | 1014.0 |
| 20260507100003 | 16 | 0 | 0.0 | 0.0 | 0.00 | 0.00 | 0.91 | 37 | 1014.1 |
| 20260507095003 | 17 | 0 | 0.0 | 0.0 | 0.00 | 0.00 | 0.89 | 36 | 1014.2 |
| 20260507093002 | 17 | 0 | 0.0 | 0.0 | 0.00 | 0.00 | 0.89 | 34 | 1014.3 |
| 20260507092003 | 17 | 330 | 0.0 | 3.2 | 0.00 | 0.00 | 0.89 | 34 | 1014.4 |
| 20260507091003 | 17 | 0 | 0.0 | 0.0 | 0.00 | 0.00 | 0.89 | 34 | 1014.4 |
| 20260507090004 | 18 | 293 | 0.0 | 3.2 | 0.00 | 0.00 | 0.89 | 33 | 1014.4 |
| 20260507085013 | 18 | 0 | 0.0 | 0.0 | 0.00 | 0.00 | 0.89 | 33 | 1014.5 |
| 20260507084003 | 18 | 0 | 0.0 | 0.0 | 0.00 | 0.00 | 0.89 | 32 | 1014.7 |
| 20260507083003 | 18 | 58 | 0.0 | 1.6 | 0.00 | 0.00 | 0.89 | 32 | 1014.7 |
| 20260507082003 | 19 | 0 | 0.0 | 0.0 | 0.00 | 0.00 | 0.91 | 32 | 1014.8 |
| 20260507081012 | 18 | 337 | 3.2 | 4.8 | 0.00 | 0.00 | 0.89 | 31 | 1014.8 |
| 20260507080003 | 18 | 358 | 1.6 | 3.2 | 0.00 | 0.00 | 0.89 | 32 | 1014.8 |
| 20260507075003 | 18 | 308 | 1.6 | 1.6 | 0.00 | 0.00 | 0.91 | 33 | 1014.9 |
| 20260507074004 | 18 | 0 | 0.0 | 0.0 | 0.00 | 0.00 | 0.91 | 33 | 1014.8 |
| 20260507073003 | 19 | 320 | 0.0 | 1.6 | 0.00 | 0.00 | 0.91 | 32 | 1014.8 |
| 20260507072003 | 20 | 0 | 0.0 | 0.0 | 0.00 | 0.00 | 0.91 | 31 | 1014.8 |
| 20260507071003 | 20 | 0 | 0.0 | 0.0 | 0.00 | 0.00 | 0.91 | 30 | 1014.7 |
| 20260507070005 | 21 | 0 | 0.0 | 0.0 | 0.00 | 0.00 | 0.89 | 28 | 1014.7 |
| 20260507065003 | 21 | 359 | 1.6 | 3.2 | 0.00 | 0.00 | 0.91 | 28 | 1014.7 |
| 20260507064002 | 21 | 349 | 1.6 | 3.2 | 0.00 | 0.00 | 0.91 | 27 | 1014.7 |
| 20260507063003 | 21 | 342 | 3.2 | 4.8 | 0.00 | 0.00 | 0.91 | 27 | 1014.7 |
| 20260507062003 | 21 | 355 | 3.2 | 3.2 | 0.00 | 0.00 | 0.89 | 27 | 1014.5 |
| 20260507061003 | 21 | 349 | 3.2 | 6.4 | 0.00 | 0.00 | 0.91 | 28 | 1014.7 |
| 20260507060003 | 20 | 0 | 1.6 | 3.2 | 0.00 | 0.00 | 0.91 | 29 | 1014.7 |
| 20260507055002 | 20 | 335 | 0.0 | 1.6 | 0.00 | 0.00 | 0.91 | 30 | 1014.7 |
| 20260507054013 | 20 | 0 | 0.0 | 0.0 | 0.00 | 0.00 | 0.91 | 29 | 1014.7 |
| 20260507053003 | 21 | 358 | 0.0 | 3.2 | 0.00 | 0.00 | 0.89 | 28 | 1014.5 |
| 20260507052003 | 21 | 352 | 3.2 | 3.2 | 0.00 | 0.00 | 0.91 | 29 | 1014.5 |
| 20260507051003 | 21 | 0 | 0.0 | 0.0 | 0.00 | 0.00 | 0.91 | 29 | 1014.7 |
| 20260507050013 | 21 | 0 | 0.0 | 0.0 | 0.00 | 0.00 | 0.91 | 29 | 1014.7 |
| 20260507045003 | 21 | 0 | 0.0 | 0.0 | 0.00 | 0.00 | 0.91 | 28 | 1014.4 |
| 20260507044003 | 21 | 0 | 0.0 | 0.0 | 0.00 | 0.00 | 0.91 | 28 | 1014.4 |
| 20260507043003 | 22 | 0 | 0.0 | 0.0 | 0.00 | 0.00 | 0.94 | 28 | 1014.3 |
| 20260507042013 | 22 | 315 | 0.0 | 1.6 | 0.00 | 0.00 | 0.94 | 28 | 1014.3 |
| 20260507041004 | 22 | 304 | 0.0 | 0.0 | 0.00 | 0.00 | 0.91 | 27 | 1014.1 |
| 20260507040003 | 22 | 0 | 0.0 | 0.0 | 0.00 | 0.00 | 0.94 | 27 | 1014.0 |
| 20260507035003 | 22 | 0 | 0.0 | 0.0 | 0.00 | 0.00 | 0.94 | 27 | 1013.9 |
| 20260507034003 | 23 | 288 | 0.0 | 0.0 | 0.00 | 0.00 | 0.94 | 26 | 1013.8 |
| 20260507033003 | 23 | 246 | 0.0 | 0.0 | 0.00 | 0.00 | 0.94 | 25 | 1013.7 |
| 20260507032003 | 24 | 0 | 0.0 | 0.0 | 0.00 | 0.00 | 0.91 | 24 | 1013.5 |
| 20260507031003 | 25 | 316 | 0.0 | 0.0 | 0.00 | 0.00 | 0.94 | 24 | 1013.5 |
| 20260507030004 | 25 | 324 | 0.0 | 1.6 | 0.00 | 0.00 | 0.94 | 23 | 1013.4 |
| 20260507025003 | 25 | 283 | 0.0 | 1.6 | 0.00 | 0.00 | 0.94 | 23 | 1013.2 |
| 20260507024003 | 25 | 268 | 1.6 | 3.2 | 0.00 | 0.00 | 0.91 | 22 | 1013.1 |
| 20260507023003 | 26 | 270 | 1.6 | 3.2 | 0.00 | 0.00 | 0.94 | 22 | 1013.0 |
| 20260507022003 | 26 | 272 | 3.2 | 4.8 | 0.00 | 0.00 | 0.94 | 22 | 1012.9 |
| 20260507021003 | 26 | 319 | 0.0 | 1.6 | 0.00 | 0.00 | 0.97 | 22 | 1012.9 |
| 20260507020002 | 26 | 250 | 1.6 | 4.8 | 0.00 | 0.00 | 0.97 | 22 | 1012.8 |
| 20260507015003 | 27 | 214 | 0.0 | 3.2 | 0.00 | 0.00 | 0.94 | 21 | 1012.7 |
| 20260507014003 | 27 | 240 | 1.6 | 3.2 | 0.00 | 0.00 | 0.97 | 21 | 1012.7 |
| 20260507013004 | 28 | 11 | 0.0 | 3.2 | 0.00 | 0.00 | 0.97 | 20 | 1012.7 |
| 20260507012003 | 28 | 251 | 1.6 | 6.4 | 0.00 | 0.00 | 0.97 | 20 | 1012.7 |
| 20260507010003 | 29 | 309 | 3.2 | 4.8 | 0.00 | 0.00 | 0.99 | 20 | 1012.7 |
| 20260507005003 | 29 | 261 | 0.0 | 0.0 | 0.00 | 0.00 | 0.97 | 19 | 1012.6 |
| 20260507004003 | 29 | 143 | 1.6 | 3.2 | 0.00 | 0.00 | 0.97 | 19 | 1012.6 |
| 20260507003003 | 29 | 268 | 1.6 | 3.2 | 0.00 | 0.00 | 0.97 | 19 | 1012.4 |
| 20260507002003 | 29 | 264 | 3.2 | 6.4 | 0.00 | 0.00 | 0.97 | 19 | 1012.4 |
| 20260507001003 | 29 | 239 | 1.6 | 3.2 | 0.00 | 0.00 | 0.99 | 20 | 1012.4 |
| 20260507000003 | 29 | 35 | 3.2 | 6.4 | 0.00 | 0.00 | 0.97 | 19 | 1012.4 |
| 20260506235003 | 29 | 215 | 1.6 | 6.4 | 0.00 | 0.00 | 0.97 | 19 | 1012.4 |
| 20260506234003 | 28 | 295 | 1.6 | 4.8 | 0.00 | 0.00 | 0.99 | 20 | 1012.6 |
| 20260506233003 | 29 | 230 | 4.8 | 9.7 | 0.00 | 0.00 | 0.97 | 19 | 1012.6 |
| 20260506232003 | 29 | 208 | 4.8 | 8.0 | 0.00 | 0.00 | 0.97 | 19 | 1012.7 |
| 20260506231002 | 29 | 204 | 3.2 | 8.0 | 0.00 | 0.00 | 0.97 | 19 | 1012.7 |
| 20260506230003 | 29 | 258 | 4.8 | 11.3 | 0.00 | 0.00 | 0.97 | 19 | 1012.8 |
| 20260506225002 | 29 | 262 | 3.2 | 6.4 | 0.00 | 0.00 | 0.99 | 20 | 1012.8 |
| 20260506224002 | 29 | 262 | 3.2 | 8.0 | 0.00 | 0.00 | 0.99 | 20 | 1013.0 |
| 20260506223003 | 29 | 273 | 3.2 | 9.7 | 0.00 | 0.00 | 0.99 | 20 | 1013.0 |
| 20260506222003 | 28 | 216 | 3.2 | 4.8 | 0.00 | 0.00 | 0.99 | 20 | 1013.2 |
| 20260506221003 | 28 | 251 | 3.2 | 8.0 | 0.00 | 0.00 | 0.99 | 20 | 1013.3 |
| 20260506220003 | 28 | 235 | 4.8 | 6.4 | 0.00 | 0.00 | 0.97 | 20 | 1013.3 |
| 20260506215002 | 28 | 35 | 3.2 | 6.4 | 0.00 | 0.00 | 0.97 | 20 | 1013.5 |
| 20260506214003 | 28 | 241 | 6.4 | 9.7 | 0.00 | 0.00 | 0.99 | 20 | 1013.6 |
| 20260506213003 | 28 | 155 | 3.2 | 4.8 | 0.00 | 0.00 | 0.97 | 20 | 1013.8 |
| 20260506212003 | 28 | 284 | 3.2 | 4.8 | 0.00 | 0.00 | 0.97 | 20 | 1013.8 |
| 20260506211003 | 28 | 239 | 4.8 | 9.7 | 0.00 | 0.00 | 0.97 | 20 | 1014.0 |
| 20260506210003 | 28 | 169 | 1.6 | 6.4 | 0.00 | 0.00 | 0.97 | 20 | 1014.1 |
| 20260506205002 | 28 | 252 | 3.2 | 8.0 | 0.00 | 0.00 | 0.97 | 20 | 1014.3 |
| 20260506204003 | 27 | 347 | 3.2 | 8.0 | 0.00 | 0.00 | 0.97 | 21 | 1014.4 |